Time;durP1;ratioP1;P1;durP2;ratioP2;P2;SDS_P1;SDS_P2;PMS_P1;PMS_P2;Temp;Humidity;BMP_temperature;BMP_pressure;BME280_temperature;BME280_humidity;BME280_pressure;Samples;Min_cycle;Max_cycle;Signal;HPM_P1;HPM_P2
2022/01/07 00:05:12;;;;;;;23.97;9.10;;;;;;;-3.33;79.61;99526.17;4121283;85;21054;-91
2022/01/07 00:11:20;;;;;;;19.83;7.87;;;;;;;-3.41;79.48;99526.72;4138749;85;21058;-92
2022/01/07 00:17:39;;;;;;;21.90;8.17;;;;;;;-3.52;79.39;99533.69;4123300;82;21914;-92
2022/01/07 00:23:45;;;;;;;25.47;9.27;;;;;;;-3.58;80.08;99540.12;4130814;85;21584;-92
2022/01/07 00:29:46;;;;;;;17.43;7.53;;;;;;;-3.61;79.96;99547.36;4131777;85;21601;-91
2022/01/07 00:36:11;;;;;;;27.00;9.60;;;;;;;-3.67;80.66;99547.10;4133728;85;21056;-92
2022/01/07 00:49:22;;;;;;;21.40;8.50;;;;;;;-3.82;80.33;99563.95;4138360;85;21021;-93
2022/01/07 00:55:30;;;;;;;25.53;7.93;;;;;;;-3.91;80.67;99568.23;4111649;85;21082;-91
2022/01/07 01:01:38;;;;;;;22.00;9.57;;;;;;;-4.05;80.82;99572.51;4133421;85;21027;-93
2022/01/07 01:07:46;;;;;;;22.63;9.40;;;;;;;-4.11;80.95;99575.44;4145450;85;22272;-93
2022/01/07 01:13:48;;;;;;;21.90;10.33;;;;;;;-4.12;81.26;99573.28;4137973;85;21533;-93
2022/01/07 01:19:55;;;;;;;29.37;10.33;;;;;;;-4.13;81.53;99573.55;4137879;84;21016;-92
2022/01/07 01:26:14;;;;;;;26.70;10.37;;;;;;;-4.12;81.64;99574.63;4176233;84;21586;-95
2022/01/07 01:32:25;;;;;;;23.77;10.73;;;;;;;-4.18;81.60;99574.36;4179909;84;21062;-92
2022/01/07 01:38:37;;;;;;;27.20;9.83;;;;;;;-4.27;81.40;99569.27;4161336;84;21673;-93
2022/01/07 01:44:39;;;;;;;26.17;9.43;;;;;;;-4.35;81.64;99565.77;4104194;85;21094;-93
2022/01/07 01:50:42;;;;;;;22.30;9.17;;;;;;;-4.39;81.44;99563.89;4192609;83;21390;-91
2022/01/07 01:57:18;;;;;;;24.90;9.80;;;;;;;-4.46;81.40;99573.50;4162849;84;21505;-92
2022/01/07 02:03:42;;;;;;;32.50;10.73;;;;;;;-4.50;81.71;99566.27;4185944;84;21856;-92
2022/01/07 02:09:53;;;;;;;28.83;9.97;;;;;;;-4.64;81.59;99565.98;4094672;86;21053;-93
2022/01/07 02:31:31;;;;;;;31.97;10.17;;;;;;;-4.52;81.99;99542.48;4115459;85;21664;-93
2022/01/07 02:37:33;;;;;;;22.87;9.55;;;;;;;-4.57;82.06;99536.34;4078626;86;21076;-93
2022/01/07 02:51:06;;;;;;;31.00;9.93;;;;;;;-4.67;81.65;99534.97;4113913;85;21019;-94
2022/01/07 02:57:08;;;;;;;22.03;8.93;;;;;;;-4.68;81.76;99536.05;4081465;85;21426;-94
2022/01/07 03:03:09;;;;;;;17.07;6.77;;;;;;;-4.72;81.70;99544.30;4066659;85;21037;-92
2022/01/07 03:09:11;;;;;;;16.97;6.47;;;;;;;-4.69;81.75;99547.77;4074999;84;21118;-94
2022/01/07 03:15:21;;;;;;;18.00;6.93;;;;;;;-4.67;81.88;99547.80;4159548;84;21082;-93
2022/01/07 03:21:46;;;;;;;20.03;6.80;;;;;;;-4.66;82.01;99544.05;4126273;83;21050;-93
2022/01/07 03:27:55;;;;;;;15.43;5.83;;;;;;;-4.65;82.45;99546.98;4108190;85;21094;-93
2022/01/07 03:33:56;;;;;;;19.87;5.87;;;;;;;-4.64;82.58;99541.94;4116475;85;21035;-93
2022/01/07 03:55:12;;;;;;;19.83;6.83;;;;;;;-4.66;83.27;99539.23;4169620;85;21316;-93
2022/01/07 04:16:05;;;;;;;21.27;7.60;;;;;;;-4.99;82.63;99537.27;4170656;85;21642;-92
2022/01/07 04:42:49;;;;;;;20.17;7.03;;;;;;;-5.44;82.91;99525.56;4102641;79;21137;-93
2022/01/07 04:49:05;;;;;;;22.50;7.93;;;;;;;-5.54;83.05;99539.64;4058170;86;21687;-93
2022/01/07 05:09:08;;;;;;;15.00;6.00;;;;;;;-5.34;83.31;99544.31;4104948;84;21552;-93
2022/01/07 07:17:05;;;;;;;55.20;19.97;;;;;;;-6.84;84.35;99523.88;4054801;82;21141;-94
2022/01/07 07:23:11;;;;;;;47.83;19.57;;;;;;;-6.81;84.44;99515.38;4143621;85;21054;-93
2022/01/07 07:36:36;;;;;;;59.35;19.00;;;;;;;-6.58;85.12;99513.78;4143255;86;21083;-94
2022/01/07 08:50:58;;;;;;;63.93;25.10;;;;;;;-1.81;84.80;99525.59;4118580;86;21967;-93
2022/01/07 09:04:15;;;;;;;39.45;16.37;;;;;;;-0.22;84.82;99516.72;4108100;85;21925;-93
2022/01/07 09:10:30;;;;;;;21.07;9.10;;;;;;;0.59;83.82;99516.73;4094555;85;21043;-93
2022/01/07 09:17:07;;;;;;;17.60;6.40;;;;;;;1.32;83.20;99515.56;4140154;85;21074;-93
2022/01/07 09:30:36;;;;;;;17.65;7.20;;;;;;;1.99;80.92;99496.80;4099120;85;21153;-93
2022/01/07 09:50:32;;;;;;;17.48;7.53;;;;;;;4.48;78.64;99483.00;4105815;84;21727;-90
2022/01/07 09:56:35;;;;;;;14.35;7.00;;;;;;;5.12;76.22;99475.02;4106074;85;21353;-93
2022/01/07 10:02:39;;;;;;;18.27;7.12;;;;;;;5.15;76.87;99468.16;4094002;85;21129;-92
2022/01/07 10:08:46;;;;;;;17.00;7.47;;;;;;;5.07;75.72;99464.92;4015849;87;21740;-93
2022/01/07 10:15:09;;;;;;;16.87;7.70;;;;;;;5.59;74.59;99461.55;4058349;86;21094;-93
2022/01/07 10:21:16;;;;;;;14.68;6.62;;;;;;;6.04;73.98;99454.36;4060610;86;21618;-93
2022/01/07 10:27:25;;;;;;;12.13;6.75;;;;;;;6.35;73.35;99449.25;4063795;85;21623;-93
2022/01/07 10:33:41;;;;;;;19.82;7.30;;;;;;;6.66;71.58;99439.21;4064211;86;21054;-93
2022/01/07 10:39:42;;;;;;;13.48;7.10;;;;;;;6.93;71.74;99437.76;4064003;86;22470;-93
2022/01/07 10:45:52;;;;;;;15.32;6.12;;;;;;;6.85;71.66;99438.66;4064842;85;21115;-93
2022/01/07 10:51:57;;;;;;;16.70;7.08;;;;;;;6.72;71.21;99432.41;4029762;87;21533;-91
2022/01/07 10:58:01;;;;;;;11.40;6.25;;;;;;;6.24;68.13;99429.61;4025635;87;21706;-93
2022/01/07 11:04:21;;;;;;;16.55;6.83;;;;;;;5.94;64.94;99426.78;4010157;87;21581;-93
2022/01/07 11:10:28;;;;;;;12.98;5.53;;;;;;;5.14;67.42;99416.38;3956787;89;21093;-92
2022/01/07 11:16:36;;;;;;;11.00;4.80;;;;;;;4.68;63.55;99411.82;4003843;88;21106;-92
2022/01/07 11:22:49;;;;;;;9.10;4.60;;;;;;;4.23;64.14;99393.06;3984798;88;21063;-92
2022/01/07 11:29:03;;;;;;;15.30;6.00;;;;;;;3.72;59.58;99381.80;4007533;88;21627;-94
2022/01/07 11:35:33;;;;;;;14.25;5.78;;;;;;;3.56;60.00;99381.23;4018309;88;21103;-93
2022/01/07 11:41:55;;;;;;;16.12;5.87;;;;;;;3.47;58.81;99369.08;3995994;88;21084;-94
2022/01/07 11:48:26;;;;;;;13.00;5.92;;;;;;;3.37;49.23;99362.63;4020776;84;21209;-95
2022/01/07 12:01:40;;;;;;;14.30;6.17;;;;;;;2.95;55.01;99342.56;4009328;87;21414;-93
2022/01/07 12:08:38;;;;;;;16.15;6.05;;;;;;;2.99;56.93;99338.67;4020399;87;21101;-94
2022/01/07 12:22:07;;;;;;;8.35;3.75;;;;;;;2.83;48.87;99332.13;4025779;87;21099;-94
2022/01/07 12:28:48;;;;;;;10.75;3.98;;;;;;;2.65;51.19;99316.97;4104542;84;21099;-93
2022/01/07 12:35:09;;;;;;;;;;;;;;;;;;;;;
2022/01/07 12:41:25;;;;;;;8.75;3.47;;;;;;;2.59;51.75;99308.77;4130460;84;21080;-94
2022/01/07 12:48:10;;;;;;;;;;;;;;;;;;;;;
2022/01/07 12:54:25;;;;;;;8.18;3.17;;;;;;;2.39;52.76;99313.41;4097631;84;21084;-94
2022/01/07 13:00:49;;;;;;;5.67;2.50;;;;;;;2.29;53.06;99325.30;4064463;86;21070;-93
2022/01/07 13:07:18;;;;;;;11.12;3.58;;;;;;;2.14;52.83;99320.33;4094037;84;21048;-94
2022/01/07 13:20:36;;;;;;;8.88;4.25;;;;;;;1.78;51.78;99321.56;4075026;86;21042;-93
2022/01/07 13:27:03;;;;;;;9.90;3.35;;;;;;;1.58;52.17;99316.15;4072430;86;21092;-94
2022/01/07 13:33:15;;;;;;;11.12;3.85;;;;;;;1.52;52.40;99310.06;4103593;84;21128;-93
2022/01/07 13:39:41;;;;;;;12.13;5.10;;;;;;;1.50;52.29;99309.56;4098452;86;21057;-93
2022/01/07 13:45:59;;;;;;;16.83;6.23;;;;;;;1.52;52.19;99311.41;4093311;84;21061;-93
2022/01/07 13:52:10;;;;;;;16.82;6.60;;;;;;;1.42;52.35;99288.75;4133906;82;21081;-94
2022/01/07 13:58:31;;;;;;;34.65;12.93;;;;;;;1.47;52.70;99301.31;4130543;84;21104;-94
2022/01/07 14:04:59;;;;;;;38.02;15.38;;;;;;;1.33;52.72;99304.06;4148919;84;21542;-93
2022/01/07 14:11:15;;;;;;;34.92;15.65;;;;;;;1.14;52.95;99286.48;4169062;84;21046;-94
2022/01/07 14:17:30;;;;;;;36.48;14.68;;;;;;;0.99;53.20;99285.48;4157116;84;21124;-93
2022/01/07 14:23:47;;;;;;;98.22;45.92;;;;;;;0.91;53.52;99284.31;4175791;83;21093;-93
2022/01/07 14:29:55;;;;;;;73.72;17.77;;;;;;;0.79;53.46;99277.32;4183498;84;21033;-93
2022/01/07 14:36:01;;;;;;;87.00;35.65;;;;;;;0.71;53.05;99269.95;4176705;84;21081;-93
2022/01/07 14:42:05;;;;;;;60.50;25.95;;;;;;;0.62;53.45;99272.32;4131590;84;21149;-94
2022/01/07 14:48:11;;;;;;;61.23;23.27;;;;;;;0.48;53.43;99268.32;4195132;84;21053;-93
2022/01/07 14:54:16;;;;;;;67.87;26.02;;;;;;;0.30;53.86;99262.50;4195565;84;21050;-93
2022/01/07 15:00:25;;;;;;;94.80;36.55;;;;;;;0.08;54.36;99263.76;4206733;84;21088;-94
2022/01/07 15:06:28;;;;;;;65.55;27.50;;;;;;;-0.06;54.58;99269.69;4204615;84;21065;-94
2022/01/07 15:12:44;;;;;;;;;;;;;;;;;;;;;
2022/01/07 15:18:46;;;;;;;92.30;35.68;;;;;;;-0.60;55.73;99274.48;4162777;84;21225;-93
2022/01/07 15:24:55;;;;;;;71.65;29.00;;;;;;;-0.81;56.25;99268.36;4184998;84;21069;-93
2022/01/07 15:31:05;;;;;;;101.05;40.20;;;;;;;-1.24;57.00;99256.97;4191782;84;21814;-93
2022/01/07 15:37:20;;;;;;;96.28;33.92;;;;;;;-1.24;57.00;99256.97;4197912;84;21714;-94
2022/01/07 15:43:24;;;;;;;81.40;26.27;;;;;;;-1.33;57.43;99260.61;4167146;82;21136;-93
2022/01/07 15:49:27;;;;;;;74.07;27.37;;;;;;;-1.46;58.20;99252.73;4207012;83;21087;-95
2022/01/07 15:55:35;;;;;;;65.63;23.57;;;;;;;-1.59;58.24;99242.70;4136271;84;21063;-94
2022/01/07 16:02:04;;;;;;;64.30;23.73;;;;;;;-1.70;58.34;99242.05;4105965;85;21107;-93
2022/01/07 16:08:07;;;;;;;73.73;29.30;;;;;;;-1.86;58.65;99229.91;4124159;85;21603;-93
2022/01/07 16:14:22;;;;;;;76.33;30.60;;;;;;;-2.00;58.75;99230.36;4092711;85;21062;-93
2022/01/07 16:20:57;;;;;;;66.50;28.10;;;;;;;-2.21;59.27;99215.59;4106752;85;21032;-92
2022/01/07 16:27:19;;;;;;;119.87;44.63;;;;;;;-2.50;59.64;99208.16;4151440;83;21904;-92
2022/01/07 16:33:21;;;;;;;103.33;44.43;;;;;;;-2.77;60.11;99221.86;4128062;85;21022;-93
2022/01/07 16:39:47;;;;;;;103.40;47.57;;;;;;;-2.82;60.18;99217.88;4112331;85;21669;-93
2022/01/07 16:46:03;;;;;;;133.00;59.33;;;;;;;-2.90;61.35;99217.95;4124939;85;21002;-93
2022/01/07 16:52:12;;;;;;;135.60;57.40;;;;;;;-2.94;61.72;99217.47;4140278;84;21074;-93
2022/01/07 16:58:48;;;;;;;134.33;61.10;;;;;;;-2.95;62.51;99211.83;4169440;84;21943;-93
2022/01/07 17:05:49;;;;;;;;;;;;;;;;;;;;;
2022/01/07 17:32:50;;;;;;;143.70;58.03;;;;;;;-3.72;64.58;99187.27;3245966;106;21232;-94
2022/01/07 17:38:57;;;;;;;157.27;61.77;;;;;;;-3.84;64.10;99188.96;3383351;101;21253;-94
2022/01/07 17:45:12;;;;;;;143.20;57.77;;;;;;;-4.09;64.40;99186.42;3481999;97;21295;-95
2022/01/07 17:51:20;;;;;;;165.70;63.37;;;;;;;-4.06;65.25;99197.91;3800966;92;21146;-93
2022/01/07 17:57:38;;;;;;;184.63;71.13;;;;;;;-4.11;65.20;99197.92;3954443;87;22021;-95
2022/01/07 18:04:00;;;;;;;152.80;54.87;;;;;;;-4.26;64.90;99203.32;4013223;87;21105;-94
2022/01/07 18:10:13;;;;;;;171.03;66.10;;;;;;;-4.41;66.14;99203.39;4064079;86;21070;-93
2022/01/07 18:29:09;;;;;;;211.97;78.50;;;;;;;-4.46;66.18;99203.95;4064556;84;21114;-93
2022/01/07 18:35:12;;;;;;;208.87;77.83;;;;;;;-4.72;66.17;99188.53;4028734;86;21555;-93
2022/01/07 18:41:14;;;;;;;225.53;80.93;;;;;;;-4.78;66.69;99197.62;4036157;86;22138;-93
2022/01/07 18:47:17;;;;;;;225.00;91.17;;;;;;;-4.77;65.61;99199.74;4053970;86;21042;-93
2022/01/07 18:53:19;;;;;;;240.67;91.20;;;;;;;-4.82;66.01;99190.69;4056451;86;21081;-94
2022/01/07 18:59:21;;;;;;;205.73;76.37;;;;;;;-4.76;67.64;99200.80;4053369;86;21088;-94
2022/01/07 19:05:23;;;;;;;228.37;85.43;;;;;;;-4.82;66.91;99198.44;4056973;85;21053;-94
2022/01/07 19:11:45;;;;;;;215.27;85.67;;;;;;;-5.04;67.53;99196.05;4052822;86;21059;-93
2022/01/07 19:18:18;;;;;;;207.43;75.63;;;;;;;-5.08;67.68;99187.80;4049921;86;21102;-93
2022/01/07 19:31:18;;;;;;;180.70;77.00;;;;;;;-5.33;69.20;99177.67;3911297;88;21599;-93
2022/01/07 19:51:29;;;;;;;253.07;98.12;;;;;;;-5.49;69.29;99146.72;4048617;86;21052;-93
2022/01/07 19:57:31;;;;;;;239.97;87.43;;;;;;;-5.75;69.00;99149.13;4057310;86;21086;-93
2022/01/07 20:03:33;;;;;;;216.67;75.33;;;;;;;-5.86;69.76;99160.34;4052396;85;21065;-93
2022/01/07 20:09:37;;;;;;;215.43;78.90;;;;;;;-5.79;70.79;99166.70;4060271;86;21090;-93
2022/01/07 20:15:57;;;;;;;280.43;106.23;;;;;;;-5.83;70.45;99162.48;4028933;85;21121;-93
2022/01/07 20:21:58;;;;;;;219.33;84.33;;;;;;;-6.00;69.58;99143.27;4067885;86;21096;-93
2022/01/07 20:28:15;;;;;;;220.53;84.50;;;;;;;-6.21;69.01;99134.14;4085061;86;21074;-93
2022/01/07 20:34:16;;;;;;;223.67;88.77;;;;;;;-6.46;68.94;99132.22;4100648;84;21602;-93
2022/01/07 20:40:19;;;;;;;221.63;90.10;;;;;;;-6.41;69.99;99127.43;4083490;87;21084;-92
2022/01/07 20:46:27;;;;;;;225.93;88.83;;;;;;;-6.39;70.10;99126.65;4099610;85;21067;-92
2022/01/07 20:52:30;;;;;;;253.33;89.97;;;;;;;-6.65;70.17;99125.75;4086465;87;21687;-93
2022/01/07 21:12:19;;;;;;;245.23;93.83;;;;;;;-6.68;72.04;99112.44;4084203;85;22475;-93
2022/01/07 21:18:34;;;;;;;286.70;104.43;;;;;;;-6.54;72.67;99118.07;4093012;85;21598;-92
2022/01/07 21:24:43;;;;;;;304.97;108.23;;;;;;;-6.48;72.21;99122.90;4088144;85;21067;-94
2022/01/07 21:30:46;;;;;;;322.73;111.23;;;;;;;-6.64;71.91;99116.17;4086340;85;21043;-93
2022/01/07 21:37:23;;;;;;;369.30;118.00;;;;;;;-6.79;71.77;99119.30;4098397;84;21119;-93
2022/01/07 21:43:43;;;;;;;361.53;118.30;;;;;;;-7.04;72.18;99125.31;4087456;85;21057;-94
2022/01/07 21:50:19;;;;;;;320.13;110.13;;;;;;;-6.88;73.47;99126.19;4098909;86;21099;-92
2022/01/07 21:56:41;;;;;;;311.87;114.70;;;;;;;-6.77;73.21;99134.50;4115782;85;21064;-91
2022/01/07 22:03:08;;;;;;;358.13;125.80;;;;;;;-7.07;71.64;99127.68;4115390;85;21075;-92
2022/01/07 22:16:05;;;;;;;290.23;106.37;;;;;;;-7.44;71.61;99125.59;4096504;87;21106;-93
2022/01/07 22:22:09;;;;;;;192.72;66.77;;;;;;;-7.62;72.47;99120.66;4079768;86;21901;-94
2022/01/07 22:28:27;;;;;;;270.53;92.87;;;;;;;-7.45;72.89;99114.67;4101650;85;21118;-91
2022/01/07 22:34:35;;;;;;;253.33;87.63;;;;;;;-7.57;72.50;99129.49;4099434;86;21074;-92
2022/01/07 22:48:08;;;;;;;287.70;99.53;;;;;;;-7.41;73.95;99127.22;4106999;86;21106;-92
2022/01/07 22:54:23;;;;;;;272.37;98.95;;;;;;;-7.37;73.20;99119.51;4017823;89;21063;-92
2022/01/07 23:22:42;;;;;;;280.00;100.03;;;;;;;-7.83;73.88;99101.13;3941401;90;21563;-91
2022/01/07 23:42:45;;;;;;;249.77;95.70;;;;;;;-8.05;73.73;99083.14;4056075;84;21350;-91
